sensor_id;sensor_type;location;lat;lon;timestamp;pressure;altitude;pressure_sealevel;temperature;humidity
62510;BME280;48558;48.242;11.654;2022-12-18T00:03:46;97348.31;;;-5.24;100.00
62510;BME280;48558;48.242;11.654;2022-12-18T00:08:03;97342.34;;;-5.41;100.00
62510;BME280;48558;48.242;11.654;2022-12-18T00:12:19;97345.09;;;-5.29;100.00
62510;BME280;48558;48.242;11.654;2022-12-18T00:16:32;97339.22;;;-5.31;100.00
62510;BME280;48558;48.242;11.654;2022-12-18T00:20:47;97334.47;;;-5.46;100.00
62510;BME280;48558;48.242;11.654;2022-12-18T00:24:59;97334.28;;;-5.41;100.00
62510;BME280;48558;48.242;11.654;2022-12-18T00:29:13;97337.22;;;-5.34;100.00
62510;BME280;48558;48.242;11.654;2022-12-18T00:33:25;97346.81;;;-5.57;100.00
62510;BME280;48558;48.242;11.654;2022-12-18T00:37:38;97348.41;;;-5.44;100.00
62510;BME280;48558;48.242;11.654;2022-12-18T00:41:50;97357.44;;;-5.16;100.00
62510;BME280;48558;48.242;11.654;2022-12-18T00:46:21;97366.63;;;-5.29;100.00
62510;BME280;48558;48.242;11.654;2022-12-18T00:50:33;97369.09;;;-5.24;100.00
62510;BME280;48558;48.242;11.654;2022-12-18T00:54:46;97373.38;;;-5.23;100.00
62510;BME280;48558;48.242;11.654;2022-12-18T00:58:58;97379.22;;;-5.09;100.00
62510;BME280;48558;48.242;11.654;2022-12-18T01:03:13;97386.75;;;-5.02;100.00
62510;BME280;48558;48.242;11.654;2022-12-18T01:07:26;97368.91;;;-5.07;100.00
62510;BME280;48558;48.242;11.654;2022-12-18T01:11:38;97374.84;;;-5.01;100.00
62510;BME280;48558;48.242;11.654;2022-12-18T01:15:51;97377.66;;;-4.98;100.00
62510;BME280;48558;48.242;11.654;2022-12-18T01:20:04;97388.44;;;-4.98;100.00
62510;BME280;48558;48.242;11.654;2022-12-18T01:24:17;97394.06;;;-4.91;100.00
62510;BME280;48558;48.242;11.654;2022-12-18T01:28:29;97394.72;;;-4.94;100.00
62510;BME280;48558;48.242;11.654;2022-12-18T01:32:41;97396.75;;;-4.79;100.00
62510;BME280;48558;48.242;11.654;2022-12-18T01:36:54;97417.66;;;-4.76;100.00
62510;BME280;48558;48.242;11.654;2022-12-18T01:41:06;97434.38;;;-4.82;100.00
62510;BME280;48558;48.242;11.654;2022-12-18T01:45:25;97448.53;;;-4.85;100.00
62510;BME280;48558;48.242;11.654;2022-12-18T01:49:38;97431.88;;;-5.12;100.00
62510;BME280;48558;48.242;11.654;2022-12-18T01:54:01;97427.72;;;-4.97;100.00
62510;BME280;48558;48.242;11.654;2022-12-18T01:58:13;97429.63;;;-5.10;100.00
62510;BME280;48558;48.242;11.654;2022-12-18T02:02:27;97436.59;;;-4.96;100.00
62510;BME280;48558;48.242;11.654;2022-12-18T02:06:41;97431.34;;;-4.81;100.00
62510;BME280;48558;48.242;11.654;2022-12-18T02:11:02;97411.13;;;-4.87;100.00
62510;BME280;48558;48.242;11.654;2022-12-18T02:15:39;97409.13;;;-4.78;100.00
62510;BME280;48558;48.242;11.654;2022-12-18T02:20:08;97406.63;;;-4.83;100.00
62510;BME280;48558;48.242;11.654;2022-12-18T02:29:00;97414.72;;;-4.83;100.00
62510;BME280;48558;48.242;11.654;2022-12-18T02:33:15;97394.28;;;-4.96;100.00
62510;BME280;48558;48.242;11.654;2022-12-18T02:37:28;97407.06;;;-4.93;100.00
62510;BME280;48558;48.242;11.654;2022-12-18T02:41:41;97410.25;;;-4.91;100.00
62510;BME280;48558;48.242;11.654;2022-12-18T02:45:56;97415.16;;;-4.81;100.00
62510;BME280;48558;48.242;11.654;2022-12-18T02:50:30;97407.19;;;-4.89;100.00
62510;BME280;48558;48.242;11.654;2022-12-18T02:54:51;97404.59;;;-5.10;100.00
62510;BME280;48558;48.242;11.654;2022-12-18T02:59:17;97404.59;;;-5.10;100.00
62510;BME280;48558;48.242;11.654;2022-12-18T03:03:46;97407.19;;;-5.01;100.00
62510;BME280;48558;48.242;11.654;2022-12-18T03:08:04;97409.06;;;-5.02;100.00
62510;BME280;48558;48.242;11.654;2022-12-18T03:16:35;97410.75;;;-4.97;100.00
62510;BME280;48558;48.242;11.654;2022-12-18T03:20:51;97399.97;;;-4.97;100.00
62510;BME280;48558;48.242;11.654;2022-12-18T03:25:08;97399.31;;;-4.94;100.00
62510;BME280;48558;48.242;11.654;2022-12-18T03:29:25;97399.78;;;-5.04;100.00
62510;BME280;48558;48.242;11.654;2022-12-18T03:34:01;97403.72;;;-4.90;100.00
62510;BME280;48558;48.242;11.654;2022-12-18T03:38:16;97403.81;;;-4.98;100.00
62510;BME280;48558;48.242;11.654;2022-12-18T03:42:51;97416.50;;;-4.75;100.00
62510;BME280;48558;48.242;11.654;2022-12-18T03:51:43;97413.03;;;-4.87;100.00
62510;BME280;48558;48.242;11.654;2022-12-18T03:56:00;97406.75;;;-4.79;100.00
62510;BME280;48558;48.242;11.654;2022-12-18T04:00:24;97400.81;;;-4.85;100.00
62510;BME280;48558;48.242;11.654;2022-12-18T04:04:37;97416.19;;;-4.85;100.00
62510;BME280;48558;48.242;11.654;2022-12-18T04:09:01;97425.84;;;-4.84;100.00
62510;BME280;48558;48.242;11.654;2022-12-18T04:13:22;97419.44;;;-4.80;100.00
62510;BME280;48558;48.242;11.654;2022-12-18T04:17:35;97411.94;;;-4.86;100.00
62510;BME280;48558;48.242;11.654;2022-12-18T04:21:57;97399.00;;;-4.81;100.00
62510;BME280;48558;48.242;11.654;2022-12-18T04:26:09;97401.03;;;-4.78;100.00
62510;BME280;48558;48.242;11.654;2022-12-18T04:30:22;97422.59;;;-4.78;100.00
62510;BME280;48558;48.242;11.654;2022-12-18T04:34:34;97425.50;;;-4.83;100.00
62510;BME280;48558;48.242;11.654;2022-12-18T04:38:46;97422.59;;;-4.78;100.00
62510;BME280;48558;48.242;11.654;2022-12-18T04:42:59;97423.03;;;-4.88;100.00
62510;BME280;48558;48.242;11.654;2022-12-18T04:47:11;97418.88;;;-4.85;100.00
62510;BME280;48558;48.242;11.654;2022-12-18T04:51:24;97436.41;;;-4.67;100.00
62510;BME280;48558;48.242;11.654;2022-12-18T04:55:37;97419.09;;;-4.54;100.00
62510;BME280;48558;48.242;11.654;2022-12-18T04:59:49;97430.13;;;-4.47;100.00
62510;BME280;48558;48.242;11.654;2022-12-18T05:04:02;97449.56;;;-4.54;100.00
62510;BME280;48558;48.242;11.654;2022-12-18T05:08:14;97457.00;;;-4.51;100.00
62510;BME280;48558;48.242;11.654;2022-12-18T05:12:27;97449.47;;;-4.57;100.00
62510;BME280;48558;48.242;11.654;2022-12-18T05:16:39;97455.63;;;-4.45;100.00
62510;BME280;48558;48.242;11.654;2022-12-18T05:20:52;97450.91;;;-4.48;100.00
62510;BME280;48558;48.242;11.654;2022-12-18T05:25:05;97440.94;;;-4.59;100.00
62510;BME280;48558;48.242;11.654;2022-12-18T05:29:18;97447.31;;;-4.64;100.00
62510;BME280;48558;48.242;11.654;2022-12-18T05:33:32;97477.13;;;-4.48;100.00
62510;BME280;48558;48.242;11.654;2022-12-18T05:37:54;97463.84;;;-4.53;100.00
62510;BME280;48558;48.242;11.654;2022-12-18T05:42:07;97450.91;;;-4.48;100.00
62510;BME280;48558;48.242;11.654;2022-12-18T05:46:19;97459.81;;;-4.59;100.00
62510;BME280;48558;48.242;11.654;2022-12-18T05:50:36;97456.66;;;-4.37;100.00
62510;BME280;48558;48.242;11.654;2022-12-18T05:54:48;97464.75;;;-4.37;100.00
62510;BME280;48558;48.242;11.654;2022-12-18T05:59:00;97472.03;;;-4.38;100.00
62510;BME280;48558;48.242;11.654;2022-12-18T06:03:13;97479.03;;;-4.37;100.00
62510;BME280;48558;48.242;11.654;2022-12-18T06:07:26;97477.66;;;-4.30;100.00
62510;BME280;48558;48.242;11.654;2022-12-18T06:11:38;97484.53;;;-4.33;100.00
62510;BME280;48558;48.242;11.654;2022-12-18T06:15:51;97484.44;;;-4.37;100.00
62510;BME280;48558;48.242;11.654;2022-12-18T06:20:14;97483.72;;;-4.58;100.00
62510;BME280;48558;48.242;11.654;2022-12-18T06:24:27;97470.13;;;-4.73;100.00
62510;BME280;48558;48.242;11.654;2022-12-18T06:28:40;97479.00;;;-4.61;100.00
62510;BME280;48558;48.242;11.654;2022-12-18T06:32:52;97473.88;;;-4.98;100.00
62510;BME280;48558;48.242;11.654;2022-12-18T06:37:07;97485.25;;;-4.81;100.00
62510;BME280;48558;48.242;11.654;2022-12-18T06:41:20;97495.63;;;-4.71;100.00
62510;BME280;48558;48.242;11.654;2022-12-18T06:45:33;97499.63;;;-4.89;100.00
62510;BME280;48558;48.242;11.654;2022-12-18T06:49:45;97507.72;;;-4.89;100.00
62510;BME280;48558;48.242;11.654;2022-12-18T06:53:57;97514.13;;;-4.81;100.00
62510;BME280;48558;48.242;11.654;2022-12-18T06:58:11;97509.06;;;-4.83;100.00
62510;BME280;48558;48.242;11.654;2022-12-18T07:02:23;97525.66;;;-4.93;100.00
62510;BME280;48558;48.242;11.654;2022-12-18T07:06:46;97522.16;;;-5.05;100.00
62510;BME280;48558;48.242;11.654;2022-12-18T07:10:58;97529.88;;;-5.04;100.00
62510;BME280;48558;48.242;11.654;2022-12-18T07:15:12;97528.34;;;-5.05;100.00
62510;BME280;48558;48.242;11.654;2022-12-18T07:19:29;97549.34;;;-4.98;100.00
62510;BME280;48558;48.242;11.654;2022-12-18T07:23:42;97532.53;;;-4.95;100.00
62510;BME280;48558;48.242;11.654;2022-12-18T07:27:55;97545.06;;;-4.67;100.00
62510;BME280;48558;48.242;11.654;2022-12-18T07:32:07;97544.03;;;-4.74;100.00
62510;BME280;48558;48.242;11.654;2022-12-18T07:36:24;97556.41;;;-4.73;100.00
62510;BME280;48558;48.242;11.654;2022-12-18T07:40:36;97549.09;;;-4.61;100.00
62510;BME280;48558;48.242;11.654;2022-12-18T07:44:48;97532.28;;;-4.58;100.00
62510;BME280;48558;48.242;11.654;2022-12-18T07:49:01;97534.13;;;-4.70;100.00
62510;BME280;48558;48.242;11.654;2022-12-18T07:53:23;97558.59;;;-4.43;100.00
62510;BME280;48558;48.242;11.654;2022-12-18T07:57:35;97544.84;;;-4.50;100.00
62510;BME280;48558;48.242;11.654;2022-12-18T08:02:08;97534.97;;;-4.58;100.00
62510;BME280;48558;48.242;11.654;2022-12-18T08:06:20;97550.72;;;-4.36;100.00
62510;BME280;48558;48.242;11.654;2022-12-18T08:10:35;97545.78;;;-4.33;100.00
62510;BME280;48558;48.242;11.654;2022-12-18T08:14:47;97552.53;;;-4.15;100.00
62510;BME280;48558;48.242;11.654;2022-12-18T08:18:59;97574.25;;;-4.00;100.00
62510;BME280;48558;48.242;11.654;2022-12-18T08:23:12;97567.94;;;-4.16;100.00
62510;BME280;48558;48.242;11.654;2022-12-18T08:27:24;97571.44;;;-4.15;100.00
62510;BME280;48558;48.242;11.654;2022-12-18T08:31:40;97576.72;;;-3.71;100.00
62510;BME280;48558;48.242;11.654;2022-12-18T08:35:53;97567.63;;;-3.90;100.00
62510;BME280;48558;48.242;11.654;2022-12-18T08:40:06;97579.09;;;-3.93;100.00
62510;BME280;48558;48.242;11.654;2022-12-18T08:44:18;97586.31;;;-3.85;100.00
62510;BME280;48558;48.242;11.654;2022-12-18T08:48:53;97586.28;;;-3.61;100.00
62510;BME280;48558;48.242;11.654;2022-12-18T08:53:06;97580.06;;;-3.62;100.00
62510;BME280;48558;48.242;11.654;2022-12-18T08:57:19;97578.03;;;-3.52;100.00
62510;BME280;48558;48.242;11.654;2022-12-18T09:01:31;97586.22;;;-3.37;100.00
62510;BME280;48558;48.242;11.654;2022-12-18T09:05:45;97593.06;;;-3.15;100.00
62510;BME280;48558;48.242;11.654;2022-12-18T09:09:58;97593.50;;;-3.53;100.00
62510;BME280;48558;48.242;11.654;2022-12-18T09:14:10;97606.75;;;-3.48;100.00
62510;BME280;48558;48.242;11.654;2022-12-18T09:23:55;97589.78;;;-3.09;100.00
62510;BME280;48558;48.242;11.654;2022-12-18T09:28:14;97584.44;;;-2.93;100.00
62510;BME280;48558;48.242;11.654;2022-12-18T09:32:36;97583.25;;;-3.08;100.00
62510;BME280;48558;48.242;11.654;2022-12-18T09:36:48;97578.16;;;-3.61;100.00
62510;BME280;48558;48.242;11.654;2022-12-18T09:41:05;97585.47;;;-3.10;100.00
62510;BME280;48558;48.242;11.654;2022-12-18T09:45:38;97583.72;;;-3.18;100.00
62510;BME280;48558;48.242;11.654;2022-12-18T09:50:06;97576.34;;;-2.77;100.00
62510;BME280;48558;48.242;11.654;2022-12-18T09:54:38;97582.25;;;-3.15;100.00
62510;BME280;48558;48.242;11.654;2022-12-18T09:59:00;97571.28;;;-3.07;100.00
62510;BME280;48558;48.242;11.654;2022-12-18T10:03:14;97568.91;;;-3.48;100.00
62510;BME280;48558;48.242;11.654;2022-12-18T10:07:38;97560.78;;;-3.36;100.00
62510;BME280;48558;48.242;11.654;2022-12-18T10:12:07;97554.22;;;-3.23;100.00
62510;BME280;48558;48.242;11.654;2022-12-18T10:16:36;97553.84;;;-2.81;100.00
62510;BME280;48558;48.242;11.654;2022-12-18T10:20:56;97544.09;;;-2.70;100.00
62510;BME280;48558;48.242;11.654;2022-12-18T10:29:25;97545.50;;;-3.04;100.00
62510;BME280;48558;48.242;11.654;2022-12-18T10:33:37;97531.31;;;-2.58;100.00
62510;BME280;48558;48.242;11.654;2022-12-18T10:42:31;97520.56;;;-2.54;100.00
62510;BME280;48558;48.242;11.654;2022-12-18T10:51:27;97536.09;;;-2.67;100.00
62510;BME280;48558;48.242;11.654;2022-12-18T10:55:44;97542.16;;;-2.27;100.00
62510;BME280;48558;48.242;11.654;2022-12-18T10:59:59;97535.03;;;-2.62;100.00
62510;BME280;48558;48.242;11.654;2022-12-18T11:04:17;97536.00;;;-2.55;100.00
62510;BME280;48558;48.242;11.654;2022-12-18T11:08:30;97537.84;;;-1.96;100.00
62510;BME280;48558;48.242;11.654;2022-12-18T11:12:42;97548.94;;;-1.86;100.00
62510;BME280;48558;48.242;11.654;2022-12-18T11:16:55;97543.44;;;-2.05;100.00
62510;BME280;48558;48.242;11.654;2022-12-18T11:21:29;97535.81;;;-2.46;100.00
62510;BME280;48558;48.242;11.654;2022-12-18T11:25:51;97541.53;;;-2.20;100.00
62510;BME280;48558;48.242;11.654;2022-12-18T11:34:36;97544.22;;;-2.04;100.00
62510;BME280;48558;48.242;11.654;2022-12-18T11:38:51;97533.75;;;-2.22;100.00
62510;BME280;48558;48.242;11.654;2022-12-18T11:43:26;97528.28;;;-1.75;100.00
62510;BME280;48558;48.242;11.654;2022-12-18T11:47:57;97529.03;;;-2.56;100.00
62510;BME280;48558;48.242;11.654;2022-12-18T11:52:43;97522.47;;;-2.39;100.00
62510;BME280;48558;48.242;11.654;2022-12-18T12:19:38;97499.97;;;-1.77;100.00
62510;BME280;48558;48.242;11.654;2022-12-18T12:24:01;97498.34;;;-1.82;100.00
62510;BME280;48558;48.242;11.654;2022-12-18T12:33:08;97478.47;;;-2.21;100.00
62510;BME280;48558;48.242;11.654;2022-12-18T12:42:16;97481.97;;;-1.85;100.00
62510;BME280;48558;48.242;11.654;2022-12-18T12:46:52;97479.44;;;-2.13;100.00
62510;BME280;48558;48.242;11.654;2022-12-18T12:51:15;97472.66;;;-1.88;100.00
62510;BME280;48558;48.242;11.654;2022-12-18T12:55:29;97480.66;;;-1.76;100.00
62510;BME280;48558;48.242;11.654;2022-12-18T12:59:58;97478.78;;;-1.56;100.00
62510;BME280;48558;48.242;11.654;2022-12-18T13:04:29;97487.91;;;-1.45;100.00
62510;BME280;48558;48.242;11.654;2022-12-18T13:09:00;97495.25;;;-1.46;100.00
62510;BME280;48558;48.242;11.654;2022-12-18T13:13:14;97491.00;;;-1.81;100.00
62510;BME280;48558;48.242;11.654;2022-12-18T13:17:33;97492.06;;;-1.86;100.00
62510;BME280;48558;48.242;11.654;2022-12-18T13:21:53;97511.34;;;-1.87;100.00
62510;BME280;48558;48.242;11.654;2022-12-18T13:30:45;97505.03;;;-1.76;100.00
62510;BME280;48558;48.242;11.654;2022-12-18T13:39:33;97495.41;;;-2.39;100.00
62510;BME280;48558;48.242;11.654;2022-12-18T13:43:51;97499.59;;;-2.10;100.00
62510;BME280;48558;48.242;11.654;2022-12-18T13:48:05;97491.31;;;-2.49;100.00
62510;BME280;48558;48.242;11.654;2022-12-18T13:52:36;97482.66;;;-2.85;100.00
62510;BME280;48558;48.242;11.654;2022-12-18T13:56:49;97486.59;;;-2.83;100.00
62510;BME280;48558;48.242;11.654;2022-12-18T14:01:27;97475.03;;;-2.96;100.00
62510;BME280;48558;48.242;11.654;2022-12-18T14:05:40;97484.75;;;-2.79;100.00
62510;BME280;48558;48.242;11.654;2022-12-18T14:09:57;97485.03;;;-3.12;100.00
62510;BME280;48558;48.242;11.654;2022-12-18T14:14:41;97478.91;;;-3.24;100.00
62510;BME280;48558;48.242;11.654;2022-12-18T14:18:56;97499.69;;;-3.13;100.00
62510;BME280;48558;48.242;11.654;2022-12-18T14:23:38;97494.09;;;-3.59;100.00
62510;BME280;48558;48.242;11.654;2022-12-18T14:27:53;97499.16;;;-3.58;100.00
62510;BME280;48558;48.242;11.654;2022-12-18T14:32:20;97503.31;;;-3.48;100.00
62510;BME280;48558;48.242;11.654;2022-12-18T14:36:32;97485.81;;;-3.39;100.00
62510;BME280;48558;48.242;11.654;2022-12-18T14:40:44;97496.44;;;-3.18;100.00
62510;BME280;48558;48.242;11.654;2022-12-18T14:49:53;97496.13;;;-3.56;100.00
62510;BME280;48558;48.242;11.654;2022-12-18T14:54:16;97499.53;;;-3.72;100.00
62510;BME280;48558;48.242;11.654;2022-12-18T14:58:29;97486.63;;;-3.90;100.00
62510;BME280;48558;48.242;11.654;2022-12-18T15:02:42;97482.63;;;-3.69;100.00
62510;BME280;48558;48.242;11.654;2022-12-18T15:11:33;97492.16;;;-3.87;100.00
62510;BME280;48558;48.242;11.654;2022-12-18T15:15:47;97497.78;;;-4.04;100.00
62510;BME280;48558;48.242;11.654;2022-12-18T15:20:03;97486.84;;;-3.95;100.00
62510;BME280;48558;48.242;11.654;2022-12-18T15:24:26;97495.41;;;-4.29;100.00
62510;BME280;48558;48.242;11.654;2022-12-18T15:28:47;97506.09;;;-4.45;100.00
62510;BME280;48558;48.242;11.654;2022-12-18T15:33:23;97498.31;;;-4.59;100.00
62510;BME280;48558;48.242;11.654;2022-12-18T15:37:37;97494.63;;;-4.54;100.00
62510;BME280;48558;48.242;11.654;2022-12-18T15:41:50;97498.56;;;-4.64;100.00
62510;BME280;48558;48.242;11.654;2022-12-18T15:46:23;97502.16;;;-4.60;100.00
62510;BME280;48558;48.242;11.654;2022-12-18T15:50:36;97505.53;;;-4.51;100.00
62510;BME280;48558;48.242;11.654;2022-12-18T15:54:58;97494.63;;;-4.54;100.00
62510;BME280;48558;48.242;11.654;2022-12-18T15:59:29;97495.72;;;-4.67;100.00
62510;BME280;48558;48.242;11.654;2022-12-18T16:03:42;97492.47;;;-4.73;100.00
62510;BME280;48558;48.242;11.654;2022-12-18T16:07:55;97506.53;;;-4.43;100.00
62510;BME280;48558;48.242;11.654;2022-12-18T16:12:26;97497.22;;;-4.46;100.00
62510;BME280;48558;48.242;11.654;2022-12-18T16:16:38;97493.28;;;-4.24;100.00
62510;BME280;48558;48.242;11.654;2022-12-18T16:20:51;97485.88;;;-4.39;100.00
62510;BME280;48558;48.242;11.654;2022-12-18T16:25:03;97497.69;;;-4.44;100.00
62510;BME280;48558;48.242;11.654;2022-12-18T16:29:20;97490.69;;;-4.45;100.00
62510;BME280;48558;48.242;11.654;2022-12-18T16:33:36;97483.50;;;-4.53;100.00
62510;BME280;48558;48.242;11.654;2022-12-18T16:37:49;97490.22;;;-4.59;100.00
62510;BME280;48558;48.242;11.654;2022-12-18T16:42:13;97481.47;;;-4.80;100.00
62510;BME280;48558;48.242;11.654;2022-12-18T16:46:28;97488.88;;;-4.65;100.00
62510;BME280;48558;48.242;11.654;2022-12-18T16:50:41;97476.38;;;-4.81;100.00
62510;BME280;48558;48.242;11.654;2022-12-18T16:54:53;97467.75;;;-4.87;100.00
62510;BME280;48558;48.242;11.654;2022-12-18T16:59:06;97492.00;;;-4.87;100.00
62510;BME280;48558;48.242;11.654;2022-12-18T17:03:18;97491.00;;;-4.82;100.00
62510;BME280;48558;48.242;11.654;2022-12-18T17:07:31;97491.09;;;-4.91;100.00
62510;BME280;48558;48.242;11.654;2022-12-18T17:11:45;97488.91;;;-4.97;100.00
62510;BME280;48558;48.242;11.654;2022-12-18T17:16:08;97492.19;;;-4.92;100.00
62510;BME280;48558;48.242;11.654;2022-12-18T17:20:21;97490.47;;;-5.09;100.00
62510;BME280;48558;48.242;11.654;2022-12-18T17:24:33;97485.00;;;-5.00;100.00
62510;BME280;48558;48.242;11.654;2022-12-18T17:28:56;97483.31;;;-4.92;100.00
62510;BME280;48558;48.242;11.654;2022-12-18T17:33:09;97476.94;;;-5.00;100.00
62510;BME280;48558;48.242;11.654;2022-12-18T17:37:21;97478.38;;;-5.02;100.00
62510;BME280;48558;48.242;11.654;2022-12-18T17:41:34;97483.84;;;-5.11;100.00
62510;BME280;48558;48.242;11.654;2022-12-18T17:45:46;97473.50;;;-5.21;100.00
62510;BME280;48558;48.242;11.654;2022-12-18T17:49:58;97488.75;;;-5.25;100.00
62510;BME280;48558;48.242;11.654;2022-12-18T17:54:11;97487.78;;;-5.09;100.00
62510;BME280;48558;48.242;11.654;2022-12-18T17:58:23;97493.75;;;-5.03;100.00
62510;BME280;48558;48.242;11.654;2022-12-18T18:02:36;97484.50;;;-5.14;100.00
62510;BME280;48558;48.242;11.654;2022-12-18T18:06:49;97478.13;;;-5.10;100.00
62510;BME280;48558;48.242;11.654;2022-12-18T18:11:06;97479.13;;;-5.02;100.00
62510;BME280;48558;48.242;11.654;2022-12-18T18:15:38;97479.06;;;-5.26;100.00
62510;BME280;48558;48.242;11.654;2022-12-18T18:19:50;97473.66;;;-5.38;100.00
62510;BME280;48558;48.242;11.654;2022-12-18T18:24:08;97478.16;;;-5.30;100.00
62510;BME280;48558;48.242;11.654;2022-12-18T18:28:20;97464.06;;;-5.15;100.00
62510;BME280;48558;48.242;11.654;2022-12-18T18:32:33;97475.97;;;-5.16;100.00
62510;BME280;48558;48.242;11.654;2022-12-18T18:36:49;97466.75;;;-5.15;100.00
62510;BME280;48558;48.242;11.654;2022-12-18T18:41:03;97461.91;;;-5.22;100.00
62510;BME280;48558;48.242;11.654;2022-12-18T18:45:16;97454.53;;;-5.13;100.00
62510;BME280;48558;48.242;11.654;2022-12-18T18:49:28;97451.38;;;-5.15;100.00
62510;BME280;48558;48.242;11.654;2022-12-18T18:53:44;97469.00;;;-5.17;100.00
62510;BME280;48558;48.242;11.654;2022-12-18T18:57:56;97463.06;;;-5.23;100.00
62510;BME280;48558;48.242;11.654;2022-12-18T19:02:11;97462.06;;;-5.06;100.00
62510;BME280;48558;48.242;11.654;2022-12-18T19:06:26;97454.31;;;-5.07;100.00
62510;BME280;48558;48.242;11.654;2022-12-18T19:10:40;97442.16;;;-5.26;100.00
62510;BME280;48558;48.242;11.654;2022-12-18T19:14:53;97448.03;;;-5.12;100.00
62510;BME280;48558;48.242;11.654;2022-12-18T19:19:05;97461.81;;;-5.13;100.00
62510;BME280;48558;48.242;11.654;2022-12-18T19:23:18;97441.97;;;-5.09;100.00
62510;BME280;48558;48.242;11.654;2022-12-18T19:27:40;97451.03;;;-5.13;100.00
62510;BME280;48558;48.242;11.654;2022-12-18T19:31:53;97445.91;;;-5.06;100.00
62510;BME280;48558;48.242;11.654;2022-12-18T19:36:14;97448.16;;;-5.08;100.00
62510;BME280;48558;48.242;11.654;2022-12-18T19:40:42;97445.69;;;-5.01;100.00
62510;BME280;48558;48.242;11.654;2022-12-18T19:44:55;97443.91;;;-5.09;100.00
62510;BME280;48558;48.242;11.654;2022-12-18T19:49:12;97446.34;;;-5.04;100.00
62510;BME280;48558;48.242;11.654;2022-12-18T19:53:28;97433.88;;;-5.09;100.00
62510;BME280;48558;48.242;11.654;2022-12-18T19:57:40;97453.19;;;-5.19;100.00
62510;BME280;48558;48.242;11.654;2022-12-18T20:01:53;97439.50;;;-5.14;100.00
62510;BME280;48558;48.242;11.654;2022-12-18T20:06:30;97429.84;;;-5.15;100.00
62510;BME280;48558;48.242;11.654;2022-12-18T20:10:43;97441.38;;;-5.26;100.00
62510;BME280;48558;48.242;11.654;2022-12-18T20:15:00;97431.63;;;-5.19;100.00
62510;BME280;48558;48.242;11.654;2022-12-18T20:19:12;97424.09;;;-5.13;100.00
62510;BME280;48558;48.242;11.654;2022-12-18T20:23:26;97411.28;;;-5.28;100.00
62510;BME280;48558;48.242;11.654;2022-12-18T20:27:40;97410.63;;;-5.13;100.00
62510;BME280;48558;48.242;11.654;2022-12-18T20:31:52;97418.56;;;-5.29;100.00
62510;BME280;48558;48.242;11.654;2022-12-18T20:36:06;97415.56;;;-5.27;100.00
62510;BME280;48558;48.242;11.654;2022-12-18T20:40:20;97405.25;;;-5.25;100.00
62510;BME280;48558;48.242;11.654;2022-12-18T20:44:38;97398.75;;;-5.12;100.00
62510;BME280;48558;48.242;11.654;2022-12-18T20:48:51;97402.78;;;-5.18;100.00
62510;BME280;48558;48.242;11.654;2022-12-18T20:53:03;97415.81;;;-5.08;100.00
62510;BME280;48558;48.242;11.654;2022-12-18T20:57:15;97409.06;;;-5.14;100.00
62510;BME280;48558;48.242;11.654;2022-12-18T21:01:28;97429.19;;;-5.12;100.00
62510;BME280;48558;48.242;11.654;2022-12-18T21:05:51;97407.94;;;-5.13;100.00
62510;BME280;48558;48.242;11.654;2022-12-18T21:10:04;97405.16;;;-5.04;100.00
62510;BME280;48558;48.242;11.654;2022-12-18T21:18:30;97395.56;;;-5.26;100.00
62510;BME280;48558;48.242;11.654;2022-12-18T21:22:43;97409.50;;;-5.24;100.00
62510;BME280;48558;48.242;11.654;2022-12-18T21:26:55;97407.44;;;-5.39;100.00
62510;BME280;48558;48.242;11.654;2022-12-18T21:31:08;97393.56;;;-5.29;100.00
62510;BME280;48558;48.242;11.654;2022-12-18T21:35:22;97387.03;;;-5.28;100.00
62510;BME280;48558;48.242;11.654;2022-12-18T21:39:38;97393.91;;;-5.19;100.00
62510;BME280;48558;48.242;11.654;2022-12-18T21:43:51;97373.59;;;-5.16;100.00
62510;BME280;48558;48.242;11.654;2022-12-18T21:48:20;97372.81;;;-5.17;100.00
62510;BME280;48558;48.242;11.654;2022-12-18T21:52:32;97376.28;;;-5.16;100.00
62510;BME280;48558;48.242;11.654;2022-12-18T22:01:03;97377.16;;;-5.24;100.00
62510;BME280;48558;48.242;11.654;2022-12-18T22:05:16;97366.56;;;-5.53;100.00
62510;BME280;48558;48.242;11.654;2022-12-18T22:09:28;97375.63;;;-5.58;100.00
62510;BME280;48558;48.242;11.654;2022-12-18T22:13:51;97389.09;;;-5.58;100.00
62510;BME280;48558;48.242;11.654;2022-12-18T22:18:03;97400.16;;;-5.39;100.00
62510;BME280;48558;48.242;11.654;2022-12-18T22:22:16;97401.81;;;-5.46;100.00
62510;BME280;48558;48.242;11.654;2022-12-18T22:26:38;97390.38;;;-5.43;100.00
62510;BME280;48558;48.242;11.654;2022-12-18T22:30:50;97361.75;;;-5.36;100.00
62510;BME280;48558;48.242;11.654;2022-12-18T22:35:09;97373.91;;;-5.30;100.00
62510;BME280;48558;48.242;11.654;2022-12-18T22:39:27;97370.63;;;-5.35;100.00
62510;BME280;48558;48.242;11.654;2022-12-18T22:43:46;97367.53;;;-5.25;100.00
62510;BME280;48558;48.242;11.654;2022-12-18T22:47:58;97361.03;;;-5.12;100.00
62510;BME280;48558;48.242;11.654;2022-12-18T22:52:10;97356.53;;;-5.08;100.00
62510;BME280;48558;48.242;11.654;2022-12-18T22:56:25;97355.28;;;-5.11;100.00
62510;BME280;48558;48.242;11.654;2022-12-18T23:00:39;97356.84;;;-5.22;100.00
62510;BME280;48558;48.242;11.654;2022-12-18T23:04:51;97363.34;;;-5.35;100.00
62510;BME280;48558;48.242;11.654;2022-12-18T23:09:04;97356.75;;;-5.25;100.00
62510;BME280;48558;48.242;11.654;2022-12-18T23:13:16;97339.09;;;-5.35;100.00
62510;BME280;48558;48.242;11.654;2022-12-18T23:17:28;97336.00;;;-5.25;100.00
62510;BME280;48558;48.242;11.654;2022-12-18T23:21:41;97325.22;;;-5.13;100.00
62510;BME280;48558;48.242;11.654;2022-12-18T23:26:00;97328.94;;;-5.05;100.00
62510;BME280;48558;48.242;11.654;2022-12-18T23:30:12;97312.84;;;-5.01;100.00
62510;BME280;48558;48.242;11.654;2022-12-18T23:34:24;97305.56;;;-5.01;100.00
62510;BME280;48558;48.242;11.654;2022-12-18T23:38:37;97315.56;;;-5.01;100.00
62510;BME280;48558;48.242;11.654;2022-12-18T23:42:50;97298.28;;;-5.00;100.00